Flight Track Log - Related Links

Times and Time Zones

All times are in EDT time to prevent confusion due to time zone crossing. See the DAL3676 flight status page for this flight to view local times or setup timezone preferences in your user account.

Time Position Orientation Groundspeed Altitude Reporting Facility
EDT Latitude Longitude Course Direction KTS MPH feet Rate Location/Type
Thu 07:07:57 PM 34.7133 -86.7644 North 150 173 3,300  Level Memphis Center
Thu 07:08:57 PM 34.7758 -86.7644 360° North 202 232 5,400 2,450 Climbing Memphis Center
Thu 07:09:57 PM 34.8508 -86.7586 North 237 273 8,200 2,600 Climbing Memphis Center
Thu 07:10:57 PM 34.9258 -86.7556 North 259 298 10,600 1,750 Climbing Memphis Center
Thu 07:11:00 PM 35.1070 -86.7426 North  Level FlightAware Approximate
Thu 07:11:57 PM 35.0133 -86.7492 North 285 328 11,700  Level Memphis Center
Thu 07:12:00 PM 35.2017 -86.7332 North  Level FlightAware Approximate
Thu 07:12:57 PM 35.1047 -86.7428 North 309 356 13,700  Level Memphis Center
Thu 07:13:00 PM 35.3024 -86.7231 North  Level FlightAware Approximate
Thu 07:13:57 PM 35.1903 -86.7392 North 327 376 15,300  Level Memphis Center
Thu 07:14:57 PM 35.2861 -86.7322 North 333 383 16,900 1,350 Climbing Memphis Center
Thu 07:15:57 PM 35.3944 -86.7275 North 344 396 18,000 1,250 Climbing Memphis Center
Thu 07:16:57 PM 35.4933 -86.6928 16° North 355 409 19,400 1,000 Climbing Memphis Center
Thu 07:17:57 PM 35.5919 -86.6397 24° Northeast 362 417 20,000 850 Climbing Memphis Center
Thu 07:18:57 PM 35.6903 -86.5792 27° Northeast 378 435 21,100 1,050 Climbing Memphis Center
Thu 07:19:57 PM 35.7950 -86.5947 353° North 363 418 22,100 1,000 Climbing Memphis Center
Thu 07:20:57 PM 35.8939 -86.6211 348° North 363 418 23,100 1,000 Climbing Memphis Center
Thu 07:21:57 PM 35.9925 -86.6472 348° North 368 423 24,100 900 Climbing Memphis Center
Thu 07:22:57 PM 36.0933 -86.6736 348° North 368 423 24,900 650 Climbing Memphis Center
Thu 07:23:57 PM 36.1961 -86.6947 351° North 368 423 25,400 496 Climbing Memphis Center
Thu 07:24:58 PM 36.3031 -86.7106 353° North 374 430 25,900 645 Climbing Memphis Center
Thu 07:25:58 PM 36.4078 -86.7289 352° North 380 437 26,700 908 Climbing Memphis Center
Thu 07:26:57 PM 36.5125 -86.7500 351° North 385 443 27,700 1,008 Climbing Memphis Center
Thu 07:27:57 PM 36.6111 -86.7664 352° North 364 419 28,700 950 Climbing Memphis Center
Thu 07:28:57 PM 36.7075 -86.7853 351° North 353 406 29,600 645 Climbing Memphis Center
Thu 07:29:58 PM 36.8058 -86.8017 352° North 353 406 30,000 200 Climbing Memphis Center
Thu 07:30:57 PM 36.9064 -86.8206 351° North 359 413 30,000  Level Memphis Center
Thu 07:32:51 PM 37.0978 -86.8519 353° North 380 437 30,000  Level Indianapolis Center
Thu 07:33:52 PM 37.2056 -86.8708 352° North 386 444 30,000  Level Indianapolis Center
Thu 07:34:54 PM 37.3128 -86.8906 352° North 386 444 30,000  Level Indianapolis Center
Thu 07:35:56 PM 37.4217 -86.9014 355° North 388 447 30,000  Level Indianapolis Center
Thu 07:36:58 PM 37.5506 -86.8725 10° North 416 479 30,000  Level Indianapolis Center
Thu 07:38:00 PM 37.6653 -86.8453 11° North 418 481 30,000  Level Indianapolis Center
Thu 07:39:01 PM 37.7814 -86.8217 North 420 483 30,000  Level Indianapolis Center
Thu 07:40:03 PM 37.8978 -86.7983 North 425 489 30,000  Level Indianapolis Center
Thu 07:41:05 PM 38.0131 -86.7728 10° North 421 484 30,000  Level Indianapolis Center
Thu 07:42:07 PM 38.1286 -86.7469 10° North 423 487 30,000  Level Indianapolis Center
Thu 07:43:09 PM 38.2431 -86.7214 10° North 421 484 30,000  Level Indianapolis Center
Thu 07:44:10 PM 38.3811 -86.6917 10° North 422 486 30,000  Level Indianapolis Center
Thu 07:45:12 PM 38.4964 -86.6667 10° North 422 486 30,000  Level Indianapolis Center
Thu 07:46:14 PM 38.6111 -86.6403 10° North 420 483 30,000  Level Indianapolis Center
Thu 07:47:16 PM 38.7272 -86.6153 10° North 422 486 30,000  Level Indianapolis Center
Thu 07:48:17 PM 38.8419 -86.5894 10° North 418 481 30,000  Level Indianapolis Center
Thu 07:49:19 PM 38.9608 -86.5619 10° North 420 483 30,000  Level Indianapolis Center
Thu 07:50:21 PM 39.0756 -86.5369 10° North 417 480 30,000  Level Indianapolis Center
Thu 07:51:22 PM 39.2097 -86.5058 10° North 417 480 30,000  Level Indianapolis Center
Thu 07:52:24 PM 39.3236 -86.4800 10° North 414 476 30,000  Level Indianapolis Center
Thu 07:53:26 PM 39.4375 -86.4550 10° North 411 473 30,000  Level Indianapolis Center
Thu 07:54:27 PM 39.5517 -86.4347 North 410 472 30,000  Level Indianapolis Center
Thu 07:55:29 PM 39.6669 -86.4156 North 409 471 30,000  Level Indianapolis Center
Thu 07:56:31 PM 39.7722 -86.3597 22° Northeast 432 497 30,000  Level Indianapolis Center
Thu 07:57:33 PM 39.8842 -86.2539 36° Northeast 450 518 30,000  Level Indianapolis Center
Thu 07:58:00 PM 39.9353 -86.2047 36° Northeast 451 519 30,000  Level Chicago Center
Thu 07:59:02 PM 40.0375 -86.1075 36° Northeast 450 518 30,000  Level Chicago Center
Thu 07:59:36 PM 40.0886 -86.0589 36° Northeast 451 519 30,000  Level Indianapolis Center
Thu 08:00:04 PM 40.1392 -86.0103 36° Northeast 449 517 30,000  Level Chicago Center
Thu 08:01:39 PM 40.2911 -85.8639 36° Northeast 449 517 30,000 -48 Level Indianapolis Center
Thu 08:02:09 PM 40.3417 -85.8153 36° Northeast 449 517 29,900 -1,043 Descending Chicago Center
Thu 08:03:11 PM 40.4431 -85.7178 36° Northeast 449 517 28,400 -1,403 Descending Chicago Center
Thu 08:04:13 PM 40.5411 -85.6208 37° Northeast 442 509 27,000 -1,161 Descending Chicago Center
Thu 08:05:15 PM 40.6528 -85.5125 36° Northeast 428 493 26,000 -1,161 Descending Chicago Center
Thu 08:06:17 PM 40.7419 -85.4222 37° Northeast 434 499 24,600 -1,403 Descending Chicago Center
Thu 08:07:19 PM 40.8408 -85.3233 37° Northeast 444 511 23,100 -1,452 Descending Chicago Center
Thu 08:08:21 PM 40.9356 -85.2297 37° Northeast 434 499 21,600 -1,016 Descending Chicago Center
Thu 08:09:23 PM 41.0439 -85.1186 38° Northeast 417 480 21,000 -290 Descending Chicago Center
Thu 08:10:25 PM 41.1333 -85.0222 39° Northeast 416 479 21,000  Level Chicago Center
Thu 08:11:27 PM 41.2239 -84.9247 39° Northeast 421 484 21,000  Level Chicago Center
Thu 08:12:29 PM 41.3147 -84.8272 39° Northeast 423 487 21,000  Level Chicago Center
Thu 08:13:31 PM 41.4253 -84.7094 39° Northeast 427 491 21,000  Level Chicago Center
Thu 08:14:33 PM 41.5156 -84.6106 39° Northeast 424 488 21,000 -152 Level Chicago Center
Thu 08:14:50 PM 41.5356 -84.5892 39° Northeast 412 474 20,800 -1,636 Descending Cleveland Center
Thu 08:15:50 PM 41.6242 -84.4947 39° Northeast 412 474 18,900 -1,750 Descending Cleveland Center
Thu 08:16:50 PM 41.6969 -84.3767 50° Northeast 407 468 17,300 -1,929 Descending Cleveland Center
Thu 08:17:14 PM 41.7200 -84.3114 65° Northeast 422 486 16,200 -2,400 Descending Cleveland Center
Thu 08:17:50 PM 41.7519 -84.2294 62° Northeast 406 467 14,900 -2,262 Descending Cleveland Center
Thu 08:18:15 PM 41.7767 -84.1725 60° Northeast 408 470 13,900 -2,200 Descending Cleveland Center
Thu 08:18:50 PM 41.8017 -84.0986 66° East 393 452 12,700 -1,701 Descending Cleveland Center
Thu 08:19:22 PM 41.8311 -84.0278 61° Northeast 386 444 12,000 -700 Descending Cleveland Center
Thu 08:19:50 PM 41.8594 -83.9819 50° Northeast 386 444 12,000  Level Cleveland Center
Thu 08:20:11 PM 41.8875 -83.9528 38° Northeast 359 413 12,000  Level Cleveland Center
Thu 08:20:50 PM 41.9350 -83.8939 43° Northeast 362 417 12,000  Level Cleveland Center
Thu 08:21:18 PM 41.9739 -83.8511 39° Northeast 361 415 12,000  Level Cleveland Center
Thu 08:21:50 PM 42.0106 -83.8056 43° Northeast 357 411 12,000  Level Cleveland Center
Thu 08:22:25 PM 42.0539 -83.7517 43° Northeast 361 415 12,000  Level Cleveland Center
Thu 08:22:50 PM 42.0839 -83.7139 43° Northeast 357 411 12,000  Level Cleveland Center
Thu 08:23:20 PM 42.1228 -83.6683 41° Northeast 361 415 12,000 -100 Level Cleveland Center
Thu 08:23:50 PM 42.1572 -83.6253 43° Northeast 357 411 11,900 -885 Descending Cleveland Center
Thu 08:24:21 PM 42.1939 -83.5850 39° Northeast 334 384 11,100 -900 Descending Cleveland Center
Thu 08:24:50 PM 42.2239 -83.5442 45° Northeast 342 394 11,000 -393 Descending Cleveland Center
Thu 08:25:22 PM 42.2603 -83.5150 31° Northeast 271 312 10,700 -1,100 Descending Cleveland Center
Thu 08:25:50 PM 42.2939 -83.4969 22° Northeast 291 335 9,900 -1,377 Descending Cleveland Center
Thu 08:26:23 PM 42.3297 -83.4817 17° North 224 258 9,300 -1,300 Descending Cleveland Center
Thu 08:26:50 PM 42.3531 -83.4661 26° Northeast 237 273 8,600 -1,527 Descending Cleveland Center
Thu 08:27:18 PM 42.3828 -83.4533 18° North 233 268 7,900 -1,373 Descending Cleveland Center
Thu 08:28:13 PM 42.4339 -83.4078 33° Northeast 236 272 6,700 -1,219 Descending Cleveland Center
Thu 08:29:26 PM 42.4342 -83.3092 90° East 231 266 5,300 -938 Descending Cleveland Center
Thu 08:30:21 PM 42.3911 -83.2764 151° Southeast 192 221 4,700 -655 Descending Cleveland Center

Login

Don't have an account? Register now (free) for customized features, flight alerts, and more!